Aérodrome :
LOGIN :

S'inscrire | Disclaimer

   EN    FR    IT 

 










Légende :    VFR   VFR Marginal   IFR   IFR Intensif   IFR Très Intensif
Visi : 
Plafond : 
>= 8 km
>= 3000ft
5 à 8 km
1000 à 3000 ft
1500m à 5 km
500 à 1000 ft
800 à 1500m
200 à 500 ft
< 800m
< 200 ft
Symboles :   Orages  Brouillard  Fortes neiges  Fortes précipitations  Vent > 20 kt
SIGMETs :   Divers  Orages  Givrage  Turbulence  Onde Orograph.  Cendres Volcan.






- Altitude de l'aérodrome : 408 ft
- Code IATA : SOB


LHSM - Sarmellek Balaton

DERNIER METAR :
  • 270615Z AUTO 00000KT 6000 NSC 18/17 Q1016 NOSIG

METARs EXPIRÉS :
  • 270545Z AUTO 00000KT 6000 NSC 17/16 Q1016 NOSIG
  • 270515Z AUTO VRB01KT 5000 BR NSC 16/16 Q1016 NOSIG
  • 270445Z AUTO VRB03KT 6000 NSC 17/16 Q1016
  • 270415Z AUTO 00000KT 7000 NSC 17/16 Q1016
  • 270345Z AUTO 00000KT 7000 NSC 17/16 Q1016

TAF TAF LHSM
Valide du 27 à 06h jusqu'au 27 à 15h UTC


270515Z 2706/2715 VRB02KT 5000 BR NSC
PROB40 2706/2708 1000 BCFG -RA SCT001
BECMG 2708/2711 35007KT 9999 NSW SCT007 BKN015
TEMPO 2708/2715 3000 SHRA -TSRA BKN020CB
BECMG 2711/2714 BKN040



MET'MAP, la Météo Aéronautique d'un coup d'oeil ! - Copyright ORBIFLY Décembre 2007 - Disclaimer

ORBIFLY MET'MAP TEAM :

Programmation & Développement : Alexandra Zaïnal
Sur une idée originale de : Baudouin d'Aumeries
Assistance à la programmation : Marc-Olivier Méhu
Soutien technique & logistique : Manuel Goepfert

Contact : metmap@orbifly.com




SOURCES & CREDITS :

   NOAA